createdAt,value
2022-09-01T00:00:18.867Z,70.49
2022-09-01T00:02:47.987Z,70.61
2022-09-01T00:05:14.503Z,70.54
2022-09-01T00:07:41.059Z,69.70
2022-09-01T00:10:11.374Z,69.91
2022-09-01T00:12:45.534Z,70.85
2022-09-01T00:15:13.480Z,71.01
2022-09-01T00:17:40.107Z,71.73
2022-09-01T00:20:07.282Z,71.39
2022-09-01T00:22:33.914Z,71.41
2022-09-01T00:25:02.008Z,71.22
2022-09-01T00:27:30.871Z,71.36
2022-09-01T00:29:58.142Z,71.77
2022-09-01T00:32:25.376Z,72.07
2022-09-01T00:34:51.936Z,72.54
2022-09-01T00:37:18.454Z,71.82
2022-09-01T00:39:44.910Z,72.52
2022-09-01T00:42:11.643Z,72.40
2022-09-01T00:44:39.354Z,72.30
2022-09-01T00:47:06.715Z,72.00
2022-09-01T00:49:38.919Z,72.36
2022-09-01T00:52:11.788Z,72.44
2022-09-01T00:54:43.634Z,73.47
2022-09-01T00:57:12.705Z,73.40
2022-09-01T00:59:45.925Z,73.82
2022-09-01T01:02:12.434Z,74.31
2022-09-01T01:04:38.982Z,74.56
2022-09-01T01:07:08.970Z,74.86
2022-09-01T01:09:42.016Z,75.12
2022-09-01T01:12:13.690Z,75.03
2022-09-01T01:14:41.660Z,75.23
2022-09-01T01:17:12.733Z,75.68
2022-09-01T01:20:00.060Z,75.78
2022-09-01T01:22:44.925Z,76.09
2022-09-01T01:25:12.797Z,76.40
2022-09-01T01:27:43.636Z,76.30
2022-09-01T01:30:12.406Z,77.11
2022-09-01T01:32:43.245Z,76.73
2022-09-01T01:35:14.786Z,76.63
2022-09-01T01:37:45.791Z,77.04
2022-09-01T01:40:18.012Z,76.88
2022-09-01T01:42:46.892Z,76.99
2022-09-01T01:45:17.244Z,77.30
2022-09-01T01:47:47.449Z,77.13
2022-09-01T01:50:15.648Z,77.70
2022-09-01T01:52:45.354Z,77.75
2022-09-01T01:55:12.788Z,77.96
2022-09-01T01:57:41.782Z,77.63
2022-09-01T02:00:11.169Z,77.86
2022-09-01T02:02:38.717Z,78.33
2022-09-01T02:05:06.875Z,78.17
2022-09-01T02:07:33.799Z,78.31
2022-09-01T02:10:01.952Z,78.39
2022-09-01T02:12:28.494Z,77.82
2022-09-01T02:14:55.183Z,77.90
2022-09-01T02:17:22.606Z,78.83
2022-09-01T02:19:49.329Z,78.85
2022-09-01T02:22:15.825Z,78.48
2022-09-01T02:24:48.111Z,79.00
2022-09-01T02:27:15.732Z,79.25
2022-09-01T02:29:43.506Z,79.56
2022-09-01T02:32:11.637Z,79.87
2022-09-01T02:34:39.872Z,79.88
2022-09-01T02:37:06.204Z,80.26
2022-09-01T02:39:35.466Z,80.08
2022-09-01T02:42:02.110Z,79.99
2022-09-01T02:44:31.091Z,79.17
2022-09-01T02:46:58.886Z,79.84
2022-09-01T02:49:29.821Z,79.53
2022-09-01T02:51:59.594Z,79.75
2022-09-01T02:54:27.799Z,80.19
2022-09-01T02:56:54.690Z,80.62
2022-09-01T02:59:24.728Z,79.66
2022-09-01T03:01:52.597Z,80.32
2022-09-01T03:04:20.188Z,80.95
2022-09-01T03:06:47.260Z,80.98
2022-09-01T03:09:17.881Z,80.97
2022-09-01T03:11:47.631Z,80.56
2022-09-01T03:14:14.303Z,81.00
2022-09-01T03:16:41.497Z,80.70
2022-09-01T03:19:09.530Z,80.83
2022-09-01T03:21:40.898Z,81.52
2022-09-01T03:24:09.162Z,80.40
2022-09-01T03:26:36.418Z,81.12
2022-09-01T03:29:04.338Z,81.99
2022-09-01T03:31:31.941Z,81.36
2022-09-01T03:33:59.060Z,81.87
2022-09-01T03:36:26.134Z,81.59
2022-09-01T03:38:53.531Z,81.81
2022-09-01T03:41:25.088Z,81.14
2022-09-01T03:43:55.043Z,81.86
2022-09-01T03:46:22.429Z,81.66
2022-09-01T03:48:52.564Z,81.67
2022-09-01T03:51:22.548Z,81.89
2022-09-01T03:53:50.825Z,82.22
2022-09-01T03:56:17.153Z,82.34
2022-09-01T03:58:47.271Z,83.33
2022-09-01T04:01:16.036Z,83.24
2022-09-01T04:03:45.260Z,82.83
2022-09-01T04:06:13.809Z,83.32
2022-09-01T04:08:40.617Z,83.05
2022-09-01T04:11:13.915Z,83.77
2022-09-01T04:13:41.315Z,82.55
2022-09-01T04:16:36.807Z,83.93
2022-09-01T04:19:15.827Z,84.12
2022-09-01T04:21:43.932Z,83.67
2022-09-01T04:24:12.192Z,83.81
2022-09-01T04:26:40.675Z,83.92
2022-09-01T04:29:09.116Z,84.27
2022-09-01T04:31:38.637Z,84.03
2022-09-01T04:34:11.701Z,83.09
2022-09-01T04:36:39.031Z,83.73
2022-09-01T04:39:09.551Z,83.63
2022-09-01T04:41:41.075Z,83.39
2022-09-01T04:44:09.183Z,84.62
2022-09-01T04:46:46.385Z,84.40
2022-09-01T04:49:19.328Z,84.91
2022-09-01T04:51:52.738Z,83.81
2022-09-01T04:54:23.638Z,83.48
2022-09-01T04:56:52.627Z,83.66
2022-09-01T04:59:22.276Z,82.80
2022-09-01T05:01:50.622Z,82.98
2022-09-01T05:04:22.542Z,83.91
2022-09-01T05:06:53.990Z,83.15
2022-09-01T05:09:20.778Z,83.01
2022-09-01T05:11:48.597Z,83.51
2022-09-01T05:14:18.997Z,82.47
2022-09-01T05:16:46.748Z,82.67
2022-09-01T05:19:17.587Z,80.63
2022-09-01T05:21:46.142Z,78.92
2022-09-01T05:24:18.999Z,78.16
2022-09-01T05:26:47.423Z,75.33
2022-09-01T05:29:16.007Z,74.54
2022-09-01T05:31:44.497Z,72.08
2022-09-01T05:34:14.014Z,70.91
2022-09-01T05:36:46.159Z,68.77
2022-09-01T05:39:12.864Z,67.43
2022-09-01T05:41:40.834Z,66.44
2022-09-01T05:44:08.355Z,64.30
2022-09-01T05:46:37.674Z,63.81
2022-09-01T05:49:08.095Z,63.02
2022-09-01T05:51:44.339Z,62.93
2022-09-01T05:54:15.070Z,62.00
2022-09-01T05:56:44.294Z,60.38
2022-09-01T05:59:28.358Z,59.87
2022-09-01T06:01:55.804Z,58.19
2022-09-01T06:04:25.487Z,58.03
2022-09-01T06:07:11.039Z,55.43
2022-09-01T06:09:41.472Z,54.54
2022-09-01T06:12:17.142Z,54.58
2022-09-01T06:14:45.116Z,53.31
2022-09-01T06:17:11.878Z,52.39
2022-09-01T06:19:40.050Z,50.02
2022-09-01T06:22:06.588Z,50.22
2022-09-01T06:24:33.522Z,49.47
2022-09-01T06:26:59.991Z,47.92
2022-09-01T06:29:26.435Z,49.65
2022-09-01T06:31:52.957Z,49.17
2022-09-01T06:34:20.345Z,47.76
2022-09-01T06:36:49.503Z,46.41
2022-09-01T06:39:22.157Z,46.42
2022-09-01T06:41:53.017Z,46.25
2022-09-01T06:44:22.959Z,46.23
2022-09-01T06:46:50.980Z,45.75
2022-09-01T06:49:17.835Z,46.08
2022-09-01T06:51:49.113Z,47.17
2022-09-01T06:54:16.371Z,46.84
2022-09-01T06:56:44.958Z,46.42
2022-09-01T06:59:18.154Z,45.11
2022-09-01T07:01:45.012Z,44.47
2022-09-01T07:04:13.306Z,45.37
2022-09-01T07:09:47.308Z,46.77
2022-09-01T07:12:27.860Z,47.48
2022-09-01T07:17:43.153Z,46.50
2022-09-01T07:26:00.427Z,45.04
2022-09-01T07:28:39.947Z,43.88
2022-09-01T07:39:48.455Z,41.98
2022-09-01T07:42:30.322Z,45.55
2022-09-01T07:42:56.422Z,48.05
2022-09-01T07:45:27.853Z,43.65
2022-09-01T07:47:55.178Z,42.37
2022-09-01T07:53:11.316Z,45.27
2022-09-01T07:55:44.225Z,44.39
2022-09-01T07:58:12.135Z,44.25
2022-09-01T08:00:40.644Z,44.08
2022-09-01T08:03:07.236Z,43.41
2022-09-01T08:05:34.167Z,41.29
2022-09-01T08:08:01.229Z,40.68
2022-09-01T08:10:28.015Z,40.86
2022-09-01T08:12:57.569Z,38.09
2022-09-01T08:16:06.983Z,38.40
2022-09-01T08:18:14.743Z,36.90
2022-09-01T08:20:47.295Z,37.39
2022-09-01T08:23:18.312Z,37.02
2022-09-01T08:25:46.795Z,35.80
2022-09-01T08:28:14.982Z,37.53
2022-09-01T08:30:51.997Z,36.46
2022-09-01T08:33:19.346Z,35.98
2022-09-01T08:35:48.650Z,34.91
2022-09-01T08:38:15.229Z,34.85
2022-09-01T08:40:43.595Z,34.53
2022-09-01T08:43:16.254Z,35.90
2022-09-01T08:45:55.873Z,35.06
2022-09-01T08:51:30.612Z,35.45
2022-09-01T08:54:04.969Z,34.80
2022-09-01T08:56:32.475Z,34.16
2022-09-01T08:59:00.281Z,34.74
2022-09-01T09:01:46.244Z,34.10
2022-09-01T09:04:34.089Z,35.05
2022-09-01T09:07:38.153Z,36.57
2022-09-01T09:10:18.829Z,36.87
2022-09-01T09:12:53.266Z,36.43
2022-09-01T09:15:42.494Z,36.51
2022-09-01T09:18:38.752Z,35.93
2022-09-01T09:21:55.262Z,34.90
2022-09-01T09:24:52.877Z,36.52
2022-09-01T09:27:34.709Z,37.41
2022-09-01T09:30:28.157Z,36.87
2022-09-01T09:33:46.754Z,37.80
2022-09-01T09:35:47.226Z,39.84
2022-09-01T09:38:18.809Z,39.99
2022-09-01T09:41:18.481Z,40.11
2022-09-01T09:43:59.396Z,41.65
2022-09-01T09:46:32.169Z,41.90
2022-09-01T09:49:35.122Z,42.67
2022-09-01T09:52:09.879Z,39.87
2022-09-01T09:54:40.391Z,41.27
2022-09-01T09:57:13.268Z,40.88
2022-09-01T09:59:58.681Z,40.71
2022-09-01T10:02:38.539Z,39.50
2022-09-01T10:05:27.914Z,40.20
2022-09-01T10:08:00.034Z,40.00
2022-09-01T10:10:41.661Z,41.61
2022-09-01T10:13:13.851Z,41.15
2022-09-01T10:15:46.951Z,42.54
2022-09-01T10:18:21.004Z,42.71
2022-09-01T10:21:04.321Z,42.29
2022-09-01T10:23:34.644Z,41.37
2022-09-01T10:26:09.602Z,41.14
2022-09-01T10:28:50.619Z,40.89
2022-09-01T10:31:18.759Z,40.31
2022-09-01T10:33:45.392Z,41.57
2022-09-01T10:36:14.373Z,41.09
2022-09-01T10:38:50.336Z,41.52
2022-09-01T10:41:42.430Z,42.06
2022-09-01T10:44:11.648Z,41.06
2022-09-01T10:46:39.233Z,41.51
2022-09-01T10:49:33.679Z,40.24
2022-09-01T10:52:07.577Z,40.92
2022-09-01T10:54:55.715Z,40.50
2022-09-01T10:57:31.225Z,40.35
2022-09-01T11:00:36.805Z,40.19
2022-09-01T11:06:17.733Z,41.23
2022-09-01T11:09:00.680Z,41.30
2022-09-01T11:11:39.626Z,40.52
2022-09-01T11:14:18.785Z,41.40
2022-09-01T11:17:14.380Z,40.77
2022-09-01T11:19:45.962Z,40.89
2022-09-01T11:22:26.409Z,40.59
2022-09-01T11:25:11.775Z,41.22
2022-09-01T11:27:48.282Z,40.49
2022-09-01T11:30:24.241Z,40.58
2022-09-01T11:32:57.495Z,40.49
2022-09-01T11:35:28.779Z,39.81
2022-09-01T11:37:57.849Z,40.56
2022-09-01T11:40:32.515Z,39.29
2022-09-01T11:43:04.484Z,39.51
2022-09-01T11:45:35.234Z,40.61
2022-09-01T11:48:11.325Z,40.52
2022-09-01T11:50:40.861Z,40.81
2022-09-01T11:53:11.895Z,40.78
2022-09-01T11:55:44.549Z,41.63
2022-09-01T11:58:28.914Z,39.41
2022-09-01T12:00:57.304Z,40.59
2022-09-01T12:03:30.369Z,40.08
2022-09-01T12:06:03.995Z,40.29
2022-09-01T12:08:34.737Z,40.11
2022-09-01T12:11:21.203Z,40.20
2022-09-01T12:14:11.085Z,41.20
2022-09-01T12:16:42.101Z,42.25
2022-09-01T12:19:11.824Z,40.72
2022-09-01T12:21:45.461Z,40.82
2022-09-01T12:24:18.150Z,40.15
2022-09-01T12:26:47.987Z,41.28
2022-09-01T12:29:16.355Z,41.75
2022-09-01T12:31:45.787Z,40.74
2022-09-01T12:34:34.172Z,40.67
2022-09-01T12:37:19.564Z,40.46
2022-09-01T12:39:54.934Z,39.16
2022-09-01T12:42:21.382Z,36.86
2022-09-01T12:44:52.018Z,37.81
2022-09-01T12:47:33.723Z,38.28
2022-09-01T12:50:03.500Z,40.39
2022-09-01T12:52:31.534Z,40.61
2022-09-01T12:54:58.287Z,41.08
2022-09-01T12:57:31.105Z,40.06
2022-09-01T13:00:20.772Z,41.57
2022-09-01T13:02:50.816Z,40.81
2022-09-01T13:05:21.550Z,41.05
2022-09-01T13:07:48.224Z,40.80
2022-09-01T13:10:14.828Z,40.76
2022-09-01T13:12:45.706Z,41.12
2022-09-01T13:17:40.867Z,41.87
2022-09-01T13:20:08.095Z,41.92
2022-09-01T13:22:35.132Z,41.31
2022-09-01T13:25:02.115Z,41.33
2022-09-01T13:27:28.728Z,41.78
2022-09-01T13:29:55.505Z,42.41
2022-09-01T13:32:24.062Z,41.63
2022-09-01T13:34:53.129Z,41.12
2022-09-01T13:37:20.994Z,41.06
2022-09-01T13:39:48.461Z,40.01
2022-09-01T13:42:16.251Z,39.12
2022-09-01T13:44:42.863Z,38.74
2022-09-01T13:50:13.526Z,39.28
2022-09-01T13:52:44.352Z,40.64
2022-09-01T13:55:13.464Z,39.03
2022-09-01T13:57:40.030Z,38.52
2022-09-01T14:00:10.907Z,37.00
2022-09-01T14:02:43.021Z,37.90
2022-09-01T14:05:10.034Z,38.19
2022-09-01T14:07:37.105Z,38.87
2022-09-01T14:10:04.164Z,38.48
2022-09-01T14:12:30.782Z,38.43
2022-09-01T14:15:16.578Z,38.62
2022-09-01T14:17:46.411Z,38.58
2022-09-01T14:20:22.762Z,38.95
2022-09-01T14:22:50.735Z,38.65
2022-09-01T14:25:19.285Z,39.57
2022-09-01T14:27:47.049Z,40.17
2022-09-01T14:30:18.641Z,41.06
2022-09-01T14:35:18.691Z,41.87
2022-09-01T14:37:45.624Z,42.43
2022-09-01T14:40:16.739Z,41.60
2022-09-01T14:42:46.732Z,42.27
2022-09-01T14:45:15.587Z,42.06
2022-09-01T14:47:42.066Z,42.64
2022-09-01T14:52:40.187Z,43.14
2022-09-01T14:55:07.550Z,42.58
2022-09-01T14:57:36.930Z,43.02
2022-09-01T15:00:10.173Z,43.06
2022-09-01T15:02:38.304Z,43.02
2022-09-01T15:05:05.808Z,43.12
2022-09-01T15:07:32.321Z,43.47
2022-09-01T15:09:59.245Z,43.05
2022-09-01T15:12:30.810Z,43.02
2022-09-01T15:15:01.021Z,43.33
2022-09-01T15:17:28.972Z,42.77
2022-09-01T15:19:55.746Z,42.78
2022-09-01T15:22:22.226Z,42.67
2022-09-01T15:24:48.682Z,42.67
2022-09-01T15:27:15.163Z,42.53
2022-09-01T15:29:47.933Z,43.19
2022-09-01T15:32:27.418Z,43.24
2022-09-01T15:34:55.022Z,42.92
2022-09-01T15:37:21.446Z,42.60
2022-09-01T15:39:47.853Z,41.63
2022-09-01T15:44:43.540Z,41.61
2022-09-01T15:47:10.015Z,41.63
2022-09-01T15:49:36.450Z,40.97
2022-09-01T15:52:02.989Z,41.28
2022-09-01T15:54:30.681Z,42.52
2022-09-01T15:56:57.539Z,42.54
2022-09-01T15:59:24.035Z,42.34
2022-09-01T16:01:52.430Z,42.42
2022-09-01T16:04:21.902Z,42.44
2022-09-01T16:06:52.608Z,42.35
2022-09-01T16:09:21.090Z,42.64
2022-09-01T16:11:48.124Z,42.79
2022-09-01T16:14:15.975Z,43.84
2022-09-01T16:16:56.707Z,43.39
2022-09-01T16:19:32.503Z,43.30
2022-09-01T16:22:13.713Z,43.74
2022-09-01T16:24:46.917Z,44.41
2022-09-01T16:27:17.156Z,44.51
2022-09-01T16:30:08.932Z,43.63
2022-09-01T16:32:44.397Z,43.95
2022-09-01T16:35:10.987Z,44.03
2022-09-01T16:37:59.192Z,43.96
2022-09-01T16:40:44.219Z,44.06
2022-09-01T16:43:26.429Z,44.53
2022-09-01T16:46:08.256Z,44.86
2022-09-01T16:48:58.900Z,45.40
2022-09-01T16:51:44.688Z,45.29
2022-09-01T16:54:20.696Z,45.43
2022-09-01T16:57:00.185Z,46.85
2022-09-01T16:59:44.407Z,46.23
2022-09-01T17:02:41.977Z,47.35
2022-09-01T17:05:30.026Z,47.34
2022-09-01T17:08:34.247Z,49.44
2022-09-01T17:11:10.330Z,49.47
2022-09-01T17:13:44.818Z,50.71
2022-09-01T17:16:32.421Z,50.07
2022-09-01T17:19:01.611Z,50.92
2022-09-01T17:21:35.417Z,50.92
2022-09-01T17:24:22.251Z,50.67
2022-09-01T17:26:51.131Z,52.33
2022-09-01T17:29:24.561Z,52.12
2022-09-01T17:32:14.912Z,58.51
2022-09-01T17:35:04.878Z,54.08
2022-09-01T17:37:42.775Z,54.84
2022-09-01T17:40:16.439Z,54.37
2022-09-01T17:43:05.070Z,53.48
2022-09-01T17:45:47.583Z,54.28
2022-09-01T17:48:21.968Z,55.54
2022-09-01T17:51:16.443Z,56.80
2022-09-01T17:53:51.992Z,56.08
2022-09-01T17:56:30.667Z,57.01
2022-09-01T17:59:22.469Z,56.19
2022-09-01T18:02:04.054Z,57.63
2022-09-01T18:04:30.555Z,56.34
2022-09-01T18:07:46.429Z,55.43
2022-09-01T18:10:18.345Z,57.60
2022-09-01T18:12:48.466Z,56.70
2022-09-01T18:15:21.405Z,57.07
2022-09-01T18:17:54.011Z,56.91
2022-09-01T18:20:32.758Z,57.61
2022-09-01T18:23:08.446Z,57.25
2022-09-01T18:25:41.418Z,57.17
2022-09-01T18:28:08.958Z,57.61
2022-09-01T18:30:53.601Z,56.64
2022-09-01T18:33:29.633Z,58.27
2022-09-01T18:36:32.445Z,57.99
2022-09-01T18:39:11.489Z,58.32
2022-09-01T18:42:16.402Z,57.42
2022-09-01T18:45:11.311Z,59.34
2022-09-01T18:47:44.370Z,58.12
2022-09-01T18:50:27.953Z,57.73
2022-09-01T18:53:23.601Z,57.77
2022-09-01T18:56:20.912Z,58.25
2022-09-01T18:59:04.087Z,58.21
2022-09-01T19:01:44.522Z,57.97
2022-09-01T19:04:37.584Z,57.22
2022-09-01T19:07:13.773Z,56.76
2022-09-01T19:09:50.942Z,57.14
2022-09-01T19:12:35.692Z,57.69
2022-09-01T19:15:16.162Z,57.25
2022-09-01T19:18:00.498Z,57.84
2022-09-01T19:20:40.678Z,56.64
2022-09-01T19:23:24.905Z,57.13
2022-09-01T19:25:57.474Z,56.36
2022-09-01T19:28:43.666Z,56.99
2022-09-01T19:31:20.957Z,56.56
2022-09-01T19:33:52.739Z,56.70
2022-09-01T19:36:26.612Z,56.15
2022-09-01T19:38:53.884Z,56.49
2022-09-01T19:41:30.965Z,56.24
2022-09-01T19:44:09.773Z,57.27
2022-09-01T19:47:28.738Z,56.84
2022-09-01T19:50:06.577Z,56.51
2022-09-01T19:52:35.775Z,57.14
2022-09-01T19:55:11.316Z,56.54
2022-09-01T19:57:54.431Z,57.39
2022-09-01T20:00:51.538Z,56.83
2022-09-01T20:03:25.180Z,56.80
2022-09-01T20:06:09.851Z,57.76
2022-09-01T20:08:41.922Z,57.65
2022-09-01T20:11:38.193Z,57.88
2022-09-01T20:14:20.150Z,58.37
2022-09-01T20:16:52.878Z,58.18
2022-09-01T20:19:31.107Z,58.62
2022-09-01T20:22:22.755Z,57.87
2022-09-01T20:24:49.784Z,58.01
2022-09-01T20:27:38.242Z,57.19
2022-09-01T20:30:23.793Z,57.63
2022-09-01T20:33:03.027Z,56.55
2022-09-01T20:35:37.567Z,57.00
2022-09-01T20:38:42.430Z,56.87
2022-09-01T20:41:19.649Z,56.73
2022-09-01T20:43:51.713Z,56.60
2022-09-01T20:46:19.850Z,56.26
2022-09-01T20:48:46.665Z,56.68
2022-09-01T20:51:20.979Z,57.26
2022-09-01T20:54:04.904Z,57.78
2022-09-01T20:56:44.253Z,57.41
2022-09-01T20:59:47.576Z,57.77
2022-09-01T21:02:21.610Z,56.34
2022-09-01T21:05:29.748Z,55.88
2022-09-01T21:08:24.813Z,55.59
2022-09-01T21:11:00.219Z,55.70
2022-09-01T21:13:52.914Z,55.53
2022-09-01T21:16:33.074Z,55.88
2022-09-01T21:19:02.435Z,55.45
2022-09-01T21:21:38.476Z,54.98
2022-09-01T21:24:05.471Z,54.87
2022-09-01T21:26:37.649Z,54.78
2022-09-01T21:29:35.419Z,54.46
2022-09-01T21:32:02.208Z,54.13
2022-09-01T21:34:28.649Z,53.75
2022-09-01T21:36:55.557Z,53.60
2022-09-01T21:39:22.138Z,54.27
2022-09-01T21:41:48.934Z,54.44
2022-09-01T21:44:15.591Z,54.00
2022-09-01T21:46:45.218Z,54.30
2022-09-01T21:49:14.154Z,54.03
2022-09-01T21:51:41.558Z,54.04
2022-09-01T21:54:09.281Z,54.38
2022-09-01T21:56:35.778Z,54.45
2022-09-01T21:59:02.205Z,55.77
2022-09-01T22:01:31.287Z,55.13
2022-09-01T22:04:04.186Z,55.07
2022-09-01T22:06:38.023Z,54.68
2022-09-01T22:09:07.633Z,54.37
2022-09-01T22:11:54.739Z,54.69
2022-09-01T22:14:29.956Z,54.11
2022-09-01T22:16:59.037Z,55.26
2022-09-01T22:19:27.807Z,54.81
2022-09-01T22:21:57.556Z,55.06
2022-09-01T22:24:24.518Z,55.47
2022-09-01T22:26:51.003Z,56.08
2022-09-01T22:29:18.302Z,55.34
2022-09-01T22:31:45.127Z,55.79
2022-09-01T22:34:11.657Z,55.61
2022-09-01T22:36:43.427Z,55.22
2022-09-01T22:39:11.781Z,55.58
2022-09-01T22:41:39.547Z,55.53
2022-09-01T22:44:07.257Z,55.67
2022-09-01T22:46:35.880Z,55.86
2022-09-01T22:49:06.474Z,55.36
2022-09-01T22:51:33.173Z,55.51
2022-09-01T22:53:59.588Z,55.86
2022-09-01T22:56:32.319Z,55.67
2022-09-01T22:59:03.896Z,55.87
2022-09-01T23:01:33.334Z,55.61
2022-09-01T23:04:01.841Z,55.90
2022-09-01T23:06:30.262Z,55.93
2022-09-01T23:08:58.742Z,55.51
2022-09-01T23:11:26.830Z,55.79
2022-09-01T23:13:54.332Z,56.16
2022-09-01T23:16:23.104Z,55.94
2022-09-01T23:18:51.157Z,56.15
2022-09-01T23:21:21.720Z,56.19
2022-09-01T23:23:48.245Z,56.22
2022-09-01T23:26:22.055Z,56.18
2022-09-01T23:28:49.094Z,56.85
2022-09-01T23:31:18.884Z,56.46
2022-09-01T23:33:46.174Z,56.46
2022-09-01T23:36:18.947Z,56.36
2022-09-01T23:38:46.755Z,56.79
2022-09-01T23:41:16.827Z,57.23
2022-09-01T23:43:43.755Z,56.91
2022-09-01T23:46:18.927Z,56.85
2022-09-01T23:48:45.436Z,57.11
2022-09-01T23:51:12.403Z,56.47
2022-09-01T23:53:40.570Z,56.63
2022-09-01T23:56:12.964Z,56.63
2022-09-01T23:58:40.686Z,56.47
